Estación Meteorológica Peña el Pijo (Robertgarden) [ 01/30/23 14:45:33 CET ]

Fecha Hora Presion(HPa) Temp (°C) Humedad % Rocio (°C) Viento ( m/s) Direccion Lluvia 1Hora(mm) Lluvia 24H(mm) LLuvia Total(mm)
2012-Aug-31 01:01:13 1016.400 18.8 71 13.4         178.19
2012-Aug-31 02:01:16 1016.600 18.2 78 14.3         178.19
2012-Aug-31 03:01:50 1016.400 18.2 79 14.5         178.19
2012-Aug-31 04:01:46 1016.400 17.9 79 14.2         178.19
2012-Aug-31 05:01:49 1015.700 17.9 81 14.6         178.19
2012-Aug-31 06:01:50 1016.100 17.6 80 14.1         178.19
2012-Aug-31 07:01:13 1016.600 17.0 79 13.3         178.19
2012-Aug-31 08:01:13 1016.900 15.6 78 11.8         178.19
2012-Aug-31 09:01:17 1017.500 17.6 73 12.7         178.19
2012-Aug-31 10:01:13 1017.700 20.7 63 13.4         178.19
2012-Aug-31 11:01:17 1017.500 22.9 53 12.8         178.19
2012-Aug-31 12:01:12 1017.400 24.8 47 12.7         178.19
2012-Aug-31 13:01:14 1017.000 26.6 41 12.3         178.19
2012-Aug-31 14:01:15 1016.700 27.3 38 11.7         178.19
2012-Aug-31 15:01:18 1016.200 28.9 33 10.9         178.19
2012-Aug-31 16:01:13 1015.700 29.7 29 9.7 2.5 ENE     178.19
2012-Aug-31 17:01:15 1015.200 29.9 29 9.9 2.7 NE     178.19
2012-Aug-31 18:01:17 1015.200 26.5 39 11.4 2.1 N     178.19
2012-Aug-31 19:01:15 1015.200 25.6 41 11.4 1.2 ENE     178.19
2012-Aug-31 20:01:17 1015.400 23.1 48 11.4         178.19
2012-Aug-31 21:01:12 1015.500 21.2 56 12.1         178.19
2012-Aug-31 22:01:18 1016.200 19.6 63 12.3 1.4 NNE     178.19

Temperatura Máxima:29°    Temperatura Mínima:15°
Presión Máxima:1017.700 Hpa    Presión Mínima:1015.200 Hpa


Volver